sensor_id;sensor_type;location;lat;lon;timestamp;temperature;humidity
41904;DHT22;27586;51.124;4.182;2023-03-01T00:01:48;1.60;99.90
41904;DHT22;27586;51.124;4.182;2023-03-01T00:04:14;1.60;99.90
41904;DHT22;27586;51.124;4.182;2023-03-01T00:06:39;1.60;99.90
41904;DHT22;27586;51.124;4.182;2023-03-01T00:09:05;1.60;99.90
41904;DHT22;27586;51.124;4.182;2023-03-01T00:11:32;1.80;99.90
41904;DHT22;27586;51.124;4.182;2023-03-01T00:14:00;1.70;99.90
41904;DHT22;27586;51.124;4.182;2023-03-01T00:16:30;1.70;99.90
41904;DHT22;27586;51.124;4.182;2023-03-01T00:18:56;1.60;99.90
41904;DHT22;27586;51.124;4.182;2023-03-01T00:21:23;1.60;99.90
41904;DHT22;27586;51.124;4.182;2023-03-01T00:23:49;1.40;99.90
41904;DHT22;27586;51.124;4.182;2023-03-01T00:26:17;1.40;99.90
41904;DHT22;27586;51.124;4.182;2023-03-01T00:28:44;1.40;99.90
41904;DHT22;27586;51.124;4.182;2023-03-01T00:31:15;1.40;99.90
41904;DHT22;27586;51.124;4.182;2023-03-01T00:33:42;1.50;99.90
41904;DHT22;27586;51.124;4.182;2023-03-01T00:36:08;1.50;99.90
41904;DHT22;27586;51.124;4.182;2023-03-01T00:38:36;1.40;99.90
41904;DHT22;27586;51.124;4.182;2023-03-01T00:41:12;1.40;99.90
41904;DHT22;27586;51.124;4.182;2023-03-01T00:43:38;1.40;99.90
41904;DHT22;27586;51.124;4.182;2023-03-01T00:46:09;1.30;99.90
41904;DHT22;27586;51.124;4.182;2023-03-01T00:48:35;1.20;99.90
41904;DHT22;27586;51.124;4.182;2023-03-01T00:51:09;1.20;99.90
41904;DHT22;27586;51.124;4.182;2023-03-01T00:53:35;1.10;99.90
41904;DHT22;27586;51.124;4.182;2023-03-01T00:56:02;1.10;99.90
41904;DHT22;27586;51.124;4.182;2023-03-01T00:58:28;1.10;99.90
41904;DHT22;27586;51.124;4.182;2023-03-01T01:00:54;1.10;99.90
41904;DHT22;27586;51.124;4.182;2023-03-01T01:03:20;1.00;99.90
41904;DHT22;27586;51.124;4.182;2023-03-01T01:05:46;1.00;99.90
41904;DHT22;27586;51.124;4.182;2023-03-01T01:08:12;0.90;99.90
41904;DHT22;27586;51.124;4.182;2023-03-01T01:10:38;0.90;99.90
41904;DHT22;27586;51.124;4.182;2023-03-01T01:13:04;0.90;99.90
41904;DHT22;27586;51.124;4.182;2023-03-01T01:15:33;0.90;99.90
41904;DHT22;27586;51.124;4.182;2023-03-01T01:17:59;1.00;99.90
41904;DHT22;27586;51.124;4.182;2023-03-01T01:20:24;1.10;99.90
41904;DHT22;27586;51.124;4.182;2023-03-01T01:22:50;1.00;99.90
41904;DHT22;27586;51.124;4.182;2023-03-01T01:25:16;1.00;99.90
41904;DHT22;27586;51.124;4.182;2023-03-01T01:27:42;1.00;99.90
41904;DHT22;27586;51.124;4.182;2023-03-01T01:30:08;0.90;99.90
41904;DHT22;27586;51.124;4.182;2023-03-01T01:32:34;0.90;99.90
41904;DHT22;27586;51.124;4.182;2023-03-01T01:35:00;0.80;99.90
41904;DHT22;27586;51.124;4.182;2023-03-01T01:37:25;0.80;99.90
41904;DHT22;27586;51.124;4.182;2023-03-01T01:40:00;0.80;99.90
41904;DHT22;27586;51.124;4.182;2023-03-01T01:42:26;0.80;99.90
41904;DHT22;27586;51.124;4.182;2023-03-01T01:47:49;0.70;99.90
41904;DHT22;27586;51.124;4.182;2023-03-01T01:50:18;0.80;99.90
41904;DHT22;27586;51.124;4.182;2023-03-01T01:52:45;0.80;99.90
41904;DHT22;27586;51.124;4.182;2023-03-01T01:55:15;0.80;99.90
41904;DHT22;27586;51.124;4.182;2023-03-01T01:57:51;0.70;99.90
41904;DHT22;27586;51.124;4.182;2023-03-01T02:00:23;0.70;99.90
41904;DHT22;27586;51.124;4.182;2023-03-01T02:02:54;0.70;99.90
41904;DHT22;27586;51.124;4.182;2023-03-01T02:05:49;0.70;99.90
41904;DHT22;27586;51.124;4.182;2023-03-01T02:08:19;0.60;99.90
41904;DHT22;27586;51.124;4.182;2023-03-01T02:10:46;0.70;99.90
41904;DHT22;27586;51.124;4.182;2023-03-01T02:13:13;0.70;99.90
41904;DHT22;27586;51.124;4.182;2023-03-01T02:15:40;0.60;99.90
41904;DHT22;27586;51.124;4.182;2023-03-01T02:18:07;0.60;99.90
41904;DHT22;27586;51.124;4.182;2023-03-01T02:23:26;0.60;99.90
41904;DHT22;27586;51.124;4.182;2023-03-01T02:28:34;0.70;99.90
41904;DHT22;27586;51.124;4.182;2023-03-01T02:31:01;0.60;99.90
41904;DHT22;27586;51.124;4.182;2023-03-01T02:33:46;0.60;99.90
41904;DHT22;27586;51.124;4.182;2023-03-01T02:36:20;0.60;99.90
41904;DHT22;27586;51.124;4.182;2023-03-01T02:38:47;0.60;99.90
41904;DHT22;27586;51.124;4.182;2023-03-01T02:41:15;0.50;99.90
41904;DHT22;27586;51.124;4.182;2023-03-01T02:43:42;0.50;99.90
41904;DHT22;27586;51.124;4.182;2023-03-01T02:46:22;0.50;99.90
41904;DHT22;27586;51.124;4.182;2023-03-01T02:48:53;0.50;99.90
41904;DHT22;27586;51.124;4.182;2023-03-01T02:54:54;0.50;99.90
41904;DHT22;27586;51.124;4.182;2023-03-01T02:57:23;0.50;99.90
41904;DHT22;27586;51.124;4.182;2023-03-01T02:59:51;0.50;99.90
41904;DHT22;27586;51.124;4.182;2023-03-01T03:02:26;0.40;99.90
41904;DHT22;27586;51.124;4.182;2023-03-01T03:05:09;0.40;99.90
41904;DHT22;27586;51.124;4.182;2023-03-01T03:07:38;0.40;99.90
41904;DHT22;27586;51.124;4.182;2023-03-01T03:10:07;0.40;99.90
41904;DHT22;27586;51.124;4.182;2023-03-01T03:12:34;0.40;99.90
41904;DHT22;27586;51.124;4.182;2023-03-01T03:15:00;0.30;99.90
41904;DHT22;27586;51.124;4.182;2023-03-01T03:17:25;0.30;99.90
41904;DHT22;27586;51.124;4.182;2023-03-01T03:19:51;0.40;99.90
41904;DHT22;27586;51.124;4.182;2023-03-01T03:22:17;0.40;99.90
41904;DHT22;27586;51.124;4.182;2023-03-01T03:24:42;0.40;99.90
41904;DHT22;27586;51.124;4.182;2023-03-01T03:27:08;0.40;99.90
41904;DHT22;27586;51.124;4.182;2023-03-01T03:29:34;0.30;99.90
41904;DHT22;27586;51.124;4.182;2023-03-01T03:31:59;0.30;99.90
41904;DHT22;27586;51.124;4.182;2023-03-01T03:34:25;0.20;99.90
41904;DHT22;27586;51.124;4.182;2023-03-01T03:36:54;0.20;99.90
41904;DHT22;27586;51.124;4.182;2023-03-01T03:39:25;0.20;99.90
41904;DHT22;27586;51.124;4.182;2023-03-01T03:41:52;0.20;99.90
41904;DHT22;27586;51.124;4.182;2023-03-01T03:44:18;0.20;99.90
41904;DHT22;27586;51.124;4.182;2023-03-01T03:46:44;0.20;99.90
41904;DHT22;27586;51.124;4.182;2023-03-01T03:49:09;0.10;99.90
41904;DHT22;27586;51.124;4.182;2023-03-01T03:51:35;0.10;99.90
41904;DHT22;27586;51.124;4.182;2023-03-01T03:54:01;0.20;99.90
41904;DHT22;27586;51.124;4.182;2023-03-01T03:56:26;0.20;99.90
41904;DHT22;27586;51.124;4.182;2023-03-01T03:58:53;0.20;99.90
41904;DHT22;27586;51.124;4.182;2023-03-01T04:01:19;0.20;99.90
41904;DHT22;27586;51.124;4.182;2023-03-01T04:03:45;0.20;99.90
41904;DHT22;27586;51.124;4.182;2023-03-01T04:06:15;0.20;99.90
41904;DHT22;27586;51.124;4.182;2023-03-01T04:08:41;0.20;99.90
41904;DHT22;27586;51.124;4.182;2023-03-01T04:11:07;0.20;99.90
41904;DHT22;27586;51.124;4.182;2023-03-01T04:13:52;0.20;99.90
41904;DHT22;27586;51.124;4.182;2023-03-01T04:16:18;0.20;99.90
41904;DHT22;27586;51.124;4.182;2023-03-01T04:18:44;0.20;99.90
41904;DHT22;27586;51.124;4.182;2023-03-01T04:21:10;0.20;99.90
41904;DHT22;27586;51.124;4.182;2023-03-01T04:23:37;0.10;99.90
41904;DHT22;27586;51.124;4.182;2023-03-01T04:26:03;0.10;99.90
41904;DHT22;27586;51.124;4.182;2023-03-01T04:28:31;0.10;99.90
41904;DHT22;27586;51.124;4.182;2023-03-01T04:31:20;0.10;99.90
41904;DHT22;27586;51.124;4.182;2023-03-01T04:33:47;0.00;99.90
41904;DHT22;27586;51.124;4.182;2023-03-01T04:36:15;0.00;99.90
41904;DHT22;27586;51.124;4.182;2023-03-01T04:38:42;0.00;99.90
41904;DHT22;27586;51.124;4.182;2023-03-01T04:41:09;-0.10;99.90
41904;DHT22;27586;51.124;4.182;2023-03-01T04:43:37;0.00;99.90
41904;DHT22;27586;51.124;4.182;2023-03-01T04:46:08;0.00;99.90
41904;DHT22;27586;51.124;4.182;2023-03-01T04:48:36;0.00;99.90
41904;DHT22;27586;51.124;4.182;2023-03-01T04:51:03;0.00;99.90
41904;DHT22;27586;51.124;4.182;2023-03-01T04:53:30;-0.10;99.90
41904;DHT22;27586;51.124;4.182;2023-03-01T04:55:56;0.00;99.90
41904;DHT22;27586;51.124;4.182;2023-03-01T04:58:26;-0.10;99.90
41904;DHT22;27586;51.124;4.182;2023-03-01T05:00:53;-0.20;99.90
41904;DHT22;27586;51.124;4.182;2023-03-01T05:03:19;-0.20;99.90
41904;DHT22;27586;51.124;4.182;2023-03-01T05:05:47;-0.20;99.90
41904;DHT22;27586;51.124;4.182;2023-03-01T05:08:14;-0.20;99.90
41904;DHT22;27586;51.124;4.182;2023-03-01T05:10:50;-0.20;99.90
41904;DHT22;27586;51.124;4.182;2023-03-01T05:13:17;-0.20;99.90
41904;DHT22;27586;51.124;4.182;2023-03-01T05:16:05;-0.20;99.90
41904;DHT22;27586;51.124;4.182;2023-03-01T05:18:32;0.00;99.90
41904;DHT22;27586;51.124;4.182;2023-03-01T05:21:09;-0.10;99.90
41904;DHT22;27586;51.124;4.182;2023-03-01T05:23:35;-0.10;99.90
41904;DHT22;27586;51.124;4.182;2023-03-01T05:26:03;-0.10;99.90
41904;DHT22;27586;51.124;4.182;2023-03-01T05:28:30;-0.10;99.90
41904;DHT22;27586;51.124;4.182;2023-03-01T05:30:56;-0.20;99.90
41904;DHT22;27586;51.124;4.182;2023-03-01T05:33:23;-0.10;99.90
41904;DHT22;27586;51.124;4.182;2023-03-01T05:35:50;-0.10;99.90
41904;DHT22;27586;51.124;4.182;2023-03-01T05:38:17;-0.10;99.90
41904;DHT22;27586;51.124;4.182;2023-03-01T05:40:45;0.00;99.90
41904;DHT22;27586;51.124;4.182;2023-03-01T05:43:12;-0.10;99.90
41904;DHT22;27586;51.124;4.182;2023-03-01T05:45:39;-0.10;99.90
41904;DHT22;27586;51.124;4.182;2023-03-01T05:48:06;-0.10;99.90
41904;DHT22;27586;51.124;4.182;2023-03-01T05:50:36;-0.10;99.90
41904;DHT22;27586;51.124;4.182;2023-03-01T05:53:04;-0.10;99.90
41904;DHT22;27586;51.124;4.182;2023-03-01T05:55:34;-0.10;99.90
41904;DHT22;27586;51.124;4.182;2023-03-01T05:58:02;-0.10;99.90
41904;DHT22;27586;51.124;4.182;2023-03-01T06:00:29;-0.10;99.90
41904;DHT22;27586;51.124;4.182;2023-03-01T06:02:56;-0.10;99.90
41904;DHT22;27586;51.124;4.182;2023-03-01T06:05:22;-0.20;99.90
41904;DHT22;27586;51.124;4.182;2023-03-01T06:07:49;-0.20;99.90
41904;DHT22;27586;51.124;4.182;2023-03-01T06:10:16;-0.30;99.90
41904;DHT22;27586;51.124;4.182;2023-03-01T06:12:43;-0.20;99.90
41904;DHT22;27586;51.124;4.182;2023-03-01T06:15:10;-0.10;99.90
41904;DHT22;27586;51.124;4.182;2023-03-01T06:17:39;-0.20;99.90
41904;DHT22;27586;51.124;4.182;2023-03-01T06:20:27;-0.20;99.90
41904;DHT22;27586;51.124;4.182;2023-03-01T06:22:53;-0.20;99.90
41904;DHT22;27586;51.124;4.182;2023-03-01T06:25:21;-0.20;99.90
41904;DHT22;27586;51.124;4.182;2023-03-01T06:27:48;-0.30;99.90
41904;DHT22;27586;51.124;4.182;2023-03-01T06:30:16;-0.30;99.90
41904;DHT22;27586;51.124;4.182;2023-03-01T06:32:42;-0.40;99.90
41904;DHT22;27586;51.124;4.182;2023-03-01T06:35:10;-0.40;99.90
41904;DHT22;27586;51.124;4.182;2023-03-01T06:37:36;-0.40;99.90
41904;DHT22;27586;51.124;4.182;2023-03-01T06:40:03;-0.30;99.90
41904;DHT22;27586;51.124;4.182;2023-03-01T06:42:37;-0.30;99.90
41904;DHT22;27586;51.124;4.182;2023-03-01T06:45:04;-0.30;99.90
41904;DHT22;27586;51.124;4.182;2023-03-01T06:47:31;-0.20;99.90
41904;DHT22;27586;51.124;4.182;2023-03-01T06:49:59;-0.30;99.90
41904;DHT22;27586;51.124;4.182;2023-03-01T06:52:24;-0.20;99.90
41904;DHT22;27586;51.124;4.182;2023-03-01T06:54:50;-0.10;99.90
41904;DHT22;27586;51.124;4.182;2023-03-01T06:57:16;-0.10;99.90
41904;DHT22;27586;51.124;4.182;2023-03-01T06:59:42;-0.10;99.90
41904;DHT22;27586;51.124;4.182;2023-03-01T07:02:13;-0.10;99.90
41904;DHT22;27586;51.124;4.182;2023-03-01T07:04:39;-0.10;99.90
41904;DHT22;27586;51.124;4.182;2023-03-01T07:07:05;0.00;99.90
41904;DHT22;27586;51.124;4.182;2023-03-01T07:09:31;0.00;99.90
41904;DHT22;27586;51.124;4.182;2023-03-01T07:11:57;0.10;99.90
41904;DHT22;27586;51.124;4.182;2023-03-01T07:14:22;0.20;99.90
41904;DHT22;27586;51.124;4.182;2023-03-01T07:16:51;0.20;99.90
41904;DHT22;27586;51.124;4.182;2023-03-01T07:19:17;0.30;99.90
41904;DHT22;27586;51.124;4.182;2023-03-01T07:21:42;0.40;99.90
41904;DHT22;27586;51.124;4.182;2023-03-01T07:24:08;0.40;99.90
41904;DHT22;27586;51.124;4.182;2023-03-01T07:26:36;0.50;99.90
41904;DHT22;27586;51.124;4.182;2023-03-01T07:29:03;0.50;99.90
41904;DHT22;27586;51.124;4.182;2023-03-01T07:31:29;0.50;99.90
41904;DHT22;27586;51.124;4.182;2023-03-01T07:33:55;0.60;99.90
41904;DHT22;27586;51.124;4.182;2023-03-01T07:36:21;0.60;99.90
41904;DHT22;27586;51.124;4.182;2023-03-01T07:38:47;0.60;99.90
41904;DHT22;27586;51.124;4.182;2023-03-01T07:41:13;0.70;99.90
41904;DHT22;27586;51.124;4.182;2023-03-01T07:43:38;0.70;99.90
41904;DHT22;27586;51.124;4.182;2023-03-01T07:46:04;0.70;99.90
41904;DHT22;27586;51.124;4.182;2023-03-01T07:48:32;0.80;99.90
41904;DHT22;27586;51.124;4.182;2023-03-01T07:50:59;0.90;99.90
41904;DHT22;27586;51.124;4.182;2023-03-01T07:53:25;1.00;99.90
41904;DHT22;27586;51.124;4.182;2023-03-01T07:56:00;1.10;99.90
41904;DHT22;27586;51.124;4.182;2023-03-01T07:58:26;1.20;99.90
41904;DHT22;27586;51.124;4.182;2023-03-01T08:00:52;1.20;99.90
41904;DHT22;27586;51.124;4.182;2023-03-01T08:03:17;1.20;99.90
41904;DHT22;27586;51.124;4.182;2023-03-01T08:05:43;1.20;99.90
41904;DHT22;27586;51.124;4.182;2023-03-01T08:08:08;1.40;99.90
41904;DHT22;27586;51.124;4.182;2023-03-01T08:10:34;1.50;99.90
41904;DHT22;27586;51.124;4.182;2023-03-01T08:13:01;1.50;99.90
41904;DHT22;27586;51.124;4.182;2023-03-01T08:15:26;1.60;99.90
41904;DHT22;27586;51.124;4.182;2023-03-01T08:17:52;1.70;99.90
41904;DHT22;27586;51.124;4.182;2023-03-01T08:20:18;1.70;99.90
41904;DHT22;27586;51.124;4.182;2023-03-01T08:22:43;1.80;99.90
41904;DHT22;27586;51.124;4.182;2023-03-01T08:25:09;1.90;99.90
41904;DHT22;27586;51.124;4.182;2023-03-01T08:27:35;2.00;99.90
41904;DHT22;27586;51.124;4.182;2023-03-01T08:30:01;2.10;99.90
41904;DHT22;27586;51.124;4.182;2023-03-01T08:32:26;2.20;99.90
41904;DHT22;27586;51.124;4.182;2023-03-01T08:34:52;2.20;99.90
41904;DHT22;27586;51.124;4.182;2023-03-01T08:37:17;2.30;99.90
41904;DHT22;27586;51.124;4.182;2023-03-01T08:39:43;2.30;99.90
41904;DHT22;27586;51.124;4.182;2023-03-01T08:42:09;2.40;99.90
41904;DHT22;27586;51.124;4.182;2023-03-01T08:44:34;2.60;99.90
41904;DHT22;27586;51.124;4.182;2023-03-01T08:47:00;2.60;99.90
41904;DHT22;27586;51.124;4.182;2023-03-01T08:49:27;2.80;99.90
41904;DHT22;27586;51.124;4.182;2023-03-01T08:51:53;2.90;99.90
41904;DHT22;27586;51.124;4.182;2023-03-01T08:54:21;3.00;99.90
41904;DHT22;27586;51.124;4.182;2023-03-01T08:56:48;3.20;99.90
41904;DHT22;27586;51.124;4.182;2023-03-01T08:59:15;3.10;99.90
41904;DHT22;27586;51.124;4.182;2023-03-01T09:01:41;3.20;99.90
41904;DHT22;27586;51.124;4.182;2023-03-01T09:04:11;3.30;99.90
41904;DHT22;27586;51.124;4.182;2023-03-01T09:06:36;3.30;99.90
41904;DHT22;27586;51.124;4.182;2023-03-01T09:09:04;3.40;99.90
41904;DHT22;27586;51.124;4.182;2023-03-01T09:11:30;3.60;99.90
41904;DHT22;27586;51.124;4.182;2023-03-01T09:13:56;3.80;99.90
41904;DHT22;27586;51.124;4.182;2023-03-01T09:16:22;4.00;99.90
41904;DHT22;27586;51.124;4.182;2023-03-01T09:18:53;4.10;99.90
41904;DHT22;27586;51.124;4.182;2023-03-01T09:21:21;4.20;99.90
41904;DHT22;27586;51.124;4.182;2023-03-01T09:23:49;4.00;99.90
41904;DHT22;27586;51.124;4.182;2023-03-01T09:26:17;3.90;99.90
41904;DHT22;27586;51.124;4.182;2023-03-01T09:28:48;3.80;99.90
41904;DHT22;27586;51.124;4.182;2023-03-01T09:31:15;4.00;99.90
41904;DHT22;27586;51.124;4.182;2023-03-01T09:33:42;4.30;99.90
41904;DHT22;27586;51.124;4.182;2023-03-01T09:36:19;4.50;99.90
41904;DHT22;27586;51.124;4.182;2023-03-01T09:38:45;4.50;99.90
41904;DHT22;27586;51.124;4.182;2023-03-01T09:44:32;4.70;99.90
41904;DHT22;27586;51.124;4.182;2023-03-01T09:47:00;4.80;99.70
41904;DHT22;27586;51.124;4.182;2023-03-01T09:49:35;4.70;99.90
41904;DHT22;27586;51.124;4.182;2023-03-01T09:52:29;4.50;99.70
41904;DHT22;27586;51.124;4.182;2023-03-01T09:54:58;4.50;99.90
41904;DHT22;27586;51.124;4.182;2023-03-01T09:57:33;4.70;99.90
41904;DHT22;27586;51.124;4.182;2023-03-01T10:03:41;5.00;99.90
41904;DHT22;27586;51.124;4.182;2023-03-01T10:06:15;4.80;98.90
41904;DHT22;27586;51.124;4.182;2023-03-01T10:11:31;4.70;99.20
41904;DHT22;27586;51.124;4.182;2023-03-01T10:16:34;4.70;98.60
41904;DHT22;27586;51.124;4.182;2023-03-01T10:19:04;4.80;98.10
41904;DHT22;27586;51.124;4.182;2023-03-01T10:21:37;5.00;98.50
41904;DHT22;27586;51.124;4.182;2023-03-01T10:24:14;5.00;97.00
41904;DHT22;27586;51.124;4.182;2023-03-01T10:26:56;4.90;97.40
41904;DHT22;27586;51.124;4.182;2023-03-01T10:32:19;5.40;97.60
41904;DHT22;27586;51.124;4.182;2023-03-01T10:34:47;5.30;97.00
41904;DHT22;27586;51.124;4.182;2023-03-01T10:37:14;5.30;97.40
41904;DHT22;27586;51.124;4.182;2023-03-01T10:39:58;5.20;96.30
41904;DHT22;27586;51.124;4.182;2023-03-01T10:42:46;5.10;96.20
41904;DHT22;27586;51.124;4.182;2023-03-01T10:50:36;5.10;96.20
41904;DHT22;27586;51.124;4.182;2023-03-01T10:53:04;5.20;96.40
41904;DHT22;27586;51.124;4.182;2023-03-01T10:55:38;5.40;96.80
41904;DHT22;27586;51.124;4.182;2023-03-01T10:58:19;5.60;96.40
41904;DHT22;27586;51.124;4.182;2023-03-01T11:00:56;5.70;96.60
41904;DHT22;27586;51.124;4.182;2023-03-01T11:03:31;5.70;95.50
41904;DHT22;27586;51.124;4.182;2023-03-01T11:08:45;5.60;95.50
41904;DHT22;27586;51.124;4.182;2023-03-01T11:11:33;5.60;95.70
41904;DHT22;27586;51.124;4.182;2023-03-01T11:14:06;5.70;96.80
41904;DHT22;27586;51.124;4.182;2023-03-01T11:16:37;5.90;96.20
41904;DHT22;27586;51.124;4.182;2023-03-01T11:24:13;5.70;94.80
41904;DHT22;27586;51.124;4.182;2023-03-01T11:26:42;5.70;96.30
41904;DHT22;27586;51.124;4.182;2023-03-01T11:31:57;5.90;96.20
41904;DHT22;27586;51.124;4.182;2023-03-01T11:37:30;6.00;95.10
41904;DHT22;27586;51.124;4.182;2023-03-01T11:43:26;5.90;95.20
41904;DHT22;27586;51.124;4.182;2023-03-01T11:49:15;6.20;94.50
41904;DHT22;27586;51.124;4.182;2023-03-01T12:03:25;6.60;92.70
41904;DHT22;27586;51.124;4.182;2023-03-01T12:08:51;6.80;92.40
41904;DHT22;27586;51.124;4.182;2023-03-01T12:25:24;6.70;92.60
41904;DHT22;27586;51.124;4.182;2023-03-01T12:50:53;7.00;91.70
41904;DHT22;27586;51.124;4.182;2023-03-01T12:53:23;7.00;91.30
41904;DHT22;27586;51.124;4.182;2023-03-01T12:55:51;6.90;91.30
41904;DHT22;27586;51.124;4.182;2023-03-01T12:58:26;7.00;90.30
41904;DHT22;27586;51.124;4.182;2023-03-01T13:06:21;7.10;91.00
41904;DHT22;27586;51.124;4.182;2023-03-01T13:08:59;7.20;91.10
41904;DHT22;27586;51.124;4.182;2023-03-01T13:11:28;7.30;91.40
41904;DHT22;27586;51.124;4.182;2023-03-01T13:16:45;7.30;91.00
41904;DHT22;27586;51.124;4.182;2023-03-01T13:19:18;7.20;91.20
41904;DHT22;27586;51.124;4.182;2023-03-01T13:21:46;7.20;90.70
41904;DHT22;27586;51.124;4.182;2023-03-01T13:24:28;7.20;90.60
41904;DHT22;27586;51.124;4.182;2023-03-01T13:32:31;7.30;90.70
41904;DHT22;27586;51.124;4.182;2023-03-01T13:35:00;7.20;91.30
41904;DHT22;27586;51.124;4.182;2023-03-01T13:37:32;7.10;91.00
41904;DHT22;27586;51.124;4.182;2023-03-01T13:40:00;7.30;91.80
41904;DHT22;27586;51.124;4.182;2023-03-01T13:42:38;7.50;91.20
41904;DHT22;27586;51.124;4.182;2023-03-01T13:45:39;7.20;90.80
41904;DHT22;27586;51.124;4.182;2023-03-01T13:48:00;7.10;90.00
41904;DHT22;27586;51.124;4.182;2023-03-01T13:50:38;7.00;89.60
41904;DHT22;27586;51.124;4.182;2023-03-01T13:53:14;7.10;90.00
41904;DHT22;27586;51.124;4.182;2023-03-01T13:55:44;7.10;89.40
41904;DHT22;27586;51.124;4.182;2023-03-01T13:58:30;7.20;89.90
41904;DHT22;27586;51.124;4.182;2023-03-01T14:01:03;7.30;90.10
41904;DHT22;27586;51.124;4.182;2023-03-01T14:03:31;7.10;90.30
41904;DHT22;27586;51.124;4.182;2023-03-01T14:06:14;7.10;91.10
41904;DHT22;27586;51.124;4.182;2023-03-01T14:08:45;7.20;89.50
41904;DHT22;27586;51.124;4.182;2023-03-01T14:11:35;7.20;89.80
41904;DHT22;27586;51.124;4.182;2023-03-01T14:14:30;7.00;90.30
41904;DHT22;27586;51.124;4.182;2023-03-01T14:17:03;7.00;91.30
41904;DHT22;27586;51.124;4.182;2023-03-01T14:19:31;7.10;90.90
41904;DHT22;27586;51.124;4.182;2023-03-01T14:22:20;7.20;91.60
41904;DHT22;27586;51.124;4.182;2023-03-01T14:24:52;7.10;91.30
41904;DHT22;27586;51.124;4.182;2023-03-01T14:27:19;7.20;91.60
41904;DHT22;27586;51.124;4.182;2023-03-01T14:29:55;7.30;91.40
41904;DHT22;27586;51.124;4.182;2023-03-01T14:32:25;7.20;90.60
41904;DHT22;27586;51.124;4.182;2023-03-01T14:34:52;7.10;90.90
41904;DHT22;27586;51.124;4.182;2023-03-01T14:39:44;7.20;91.10
41904;DHT22;27586;51.124;4.182;2023-03-01T14:42:11;7.10;89.30
41904;DHT22;27586;51.124;4.182;2023-03-01T14:44:37;7.00;90.40
41904;DHT22;27586;51.124;4.182;2023-03-01T14:47:04;7.00;90.40
41904;DHT22;27586;51.124;4.182;2023-03-01T14:49:31;6.90;90.20
41904;DHT22;27586;51.124;4.182;2023-03-01T14:52:06;6.90;90.90
41904;DHT22;27586;51.124;4.182;2023-03-01T14:54:37;6.90;91.10
41904;DHT22;27586;51.124;4.182;2023-03-01T14:57:05;7.00;91.40
41904;DHT22;27586;51.124;4.182;2023-03-01T14:59:33;7.10;90.40
41904;DHT22;27586;51.124;4.182;2023-03-01T15:02:00;7.10;90.60
41904;DHT22;27586;51.124;4.182;2023-03-01T15:04:27;7.20;90.30
41904;DHT22;27586;51.124;4.182;2023-03-01T15:06:54;7.20;91.20
41904;DHT22;27586;51.124;4.182;2023-03-01T15:09:21;7.20;91.10
41904;DHT22;27586;51.124;4.182;2023-03-01T15:11:48;7.10;91.40
41904;DHT22;27586;51.124;4.182;2023-03-01T15:14:28;7.00;90.00
41904;DHT22;27586;51.124;4.182;2023-03-01T15:16:55;6.90;89.70
41904;DHT22;27586;51.124;4.182;2023-03-01T15:19:23;6.90;90.30
41904;DHT22;27586;51.124;4.182;2023-03-01T15:21:51;7.00;90.30
41904;DHT22;27586;51.124;4.182;2023-03-01T15:24:22;7.10;89.60
41904;DHT22;27586;51.124;4.182;2023-03-01T15:26:57;7.00;90.20
41904;DHT22;27586;51.124;4.182;2023-03-01T15:29:28;6.90;90.60
41904;DHT22;27586;51.124;4.182;2023-03-01T15:34:52;7.00;88.90
41904;DHT22;27586;51.124;4.182;2023-03-01T15:37:46;6.90;89.00
41904;DHT22;27586;51.124;4.182;2023-03-01T15:40:29;6.80;89.60
41904;DHT22;27586;51.124;4.182;2023-03-01T15:43:02;6.90;90.10
41904;DHT22;27586;51.124;4.182;2023-03-01T15:45:30;6.90;90.00
41904;DHT22;27586;51.124;4.182;2023-03-01T15:48:01;6.80;89.80
41904;DHT22;27586;51.124;4.182;2023-03-01T15:50:35;6.70;90.60
41904;DHT22;27586;51.124;4.182;2023-03-01T15:53:08;6.60;91.60
41904;DHT22;27586;51.124;4.182;2023-03-01T15:55:36;6.70;91.70
41904;DHT22;27586;51.124;4.182;2023-03-01T15:58:17;6.70;90.90
41904;DHT22;27586;51.124;4.182;2023-03-01T16:00:43;6.70;90.80
41904;DHT22;27586;51.124;4.182;2023-03-01T16:03:12;6.80;90.00
41904;DHT22;27586;51.124;4.182;2023-03-01T16:05:38;6.80;90.00
41904;DHT22;27586;51.124;4.182;2023-03-01T16:08:05;6.80;90.40
41904;DHT22;27586;51.124;4.182;2023-03-01T16:10:32;6.80;90.30
41904;DHT22;27586;51.124;4.182;2023-03-01T16:12:59;6.80;90.50
41904;DHT22;27586;51.124;4.182;2023-03-01T16:15:30;6.70;90.90
41904;DHT22;27586;51.124;4.182;2023-03-01T16:17:56;6.80;91.10
41904;DHT22;27586;51.124;4.182;2023-03-01T16:20:23;6.70;91.00
41904;DHT22;27586;51.124;4.182;2023-03-01T16:22:49;6.60;91.00
41904;DHT22;27586;51.124;4.182;2023-03-01T16:25:17;6.70;91.50
41904;DHT22;27586;51.124;4.182;2023-03-01T16:27:47;6.60;91.30
41904;DHT22;27586;51.124;4.182;2023-03-01T16:30:15;6.50;91.00
41904;DHT22;27586;51.124;4.182;2023-03-01T16:32:44;6.50;90.90
41904;DHT22;27586;51.124;4.182;2023-03-01T16:35:12;6.50;91.30
41904;DHT22;27586;51.124;4.182;2023-03-01T16:37:39;6.50;91.70
41904;DHT22;27586;51.124;4.182;2023-03-01T16:40:06;6.50;91.80
41904;DHT22;27586;51.124;4.182;2023-03-01T16:42:36;6.40;92.40
41904;DHT22;27586;51.124;4.182;2023-03-01T16:45:03;6.40;92.00
41904;DHT22;27586;51.124;4.182;2023-03-01T16:47:29;6.30;92.60
41904;DHT22;27586;51.124;4.182;2023-03-01T16:49:55;6.30;92.70
41904;DHT22;27586;51.124;4.182;2023-03-01T16:52:22;6.20;92.80
41904;DHT22;27586;51.124;4.182;2023-03-01T16:54:48;6.20;93.10
41904;DHT22;27586;51.124;4.182;2023-03-01T16:57:14;6.20;93.20
41904;DHT22;27586;51.124;4.182;2023-03-01T16:59:39;6.20;93.90
41904;DHT22;27586;51.124;4.182;2023-03-01T17:02:07;6.00;94.40
41904;DHT22;27586;51.124;4.182;2023-03-01T17:04:36;6.00;94.60
41904;DHT22;27586;51.124;4.182;2023-03-01T17:07:02;5.90;94.90
41904;DHT22;27586;51.124;4.182;2023-03-01T17:09:28;5.80;95.30
41904;DHT22;27586;51.124;4.182;2023-03-01T17:11:54;5.70;95.70
41904;DHT22;27586;51.124;4.182;2023-03-01T17:14:20;5.70;95.80
41904;DHT22;27586;51.124;4.182;2023-03-01T17:16:46;5.70;96.30
41904;DHT22;27586;51.124;4.182;2023-03-01T17:19:12;5.60;96.30
41904;DHT22;27586;51.124;4.182;2023-03-01T17:21:43;5.60;96.60
41904;DHT22;27586;51.124;4.182;2023-03-01T17:24:09;5.50;96.50
41904;DHT22;27586;51.124;4.182;2023-03-01T17:26:36;5.60;96.50
41904;DHT22;27586;51.124;4.182;2023-03-01T17:29:02;5.50;96.10
41904;DHT22;27586;51.124;4.182;2023-03-01T17:31:30;5.50;96.50
41904;DHT22;27586;51.124;4.182;2023-03-01T17:33:57;5.50;96.20
41904;DHT22;27586;51.124;4.182;2023-03-01T17:36:22;5.40;96.00
41904;DHT22;27586;51.124;4.182;2023-03-01T17:38:48;5.30;96.30
41904;DHT22;27586;51.124;4.182;2023-03-01T17:41:14;5.30;96.30
41904;DHT22;27586;51.124;4.182;2023-03-01T17:43:46;5.30;96.40
41904;DHT22;27586;51.124;4.182;2023-03-01T17:46:12;5.30;96.30
41904;DHT22;27586;51.124;4.182;2023-03-01T17:48:38;5.10;96.60
41904;DHT22;27586;51.124;4.182;2023-03-01T17:51:09;5.10;97.00
41904;DHT22;27586;51.124;4.182;2023-03-01T17:53:36;5.10;96.90
41904;DHT22;27586;51.124;4.182;2023-03-01T17:56:04;5.00;97.10
41904;DHT22;27586;51.124;4.182;2023-03-01T17:58:30;4.90;97.10
41904;DHT22;27586;51.124;4.182;2023-03-01T18:01:10;4.90;97.30